Time;durP1;ratioP1;P1;durP2;ratioP2;P2;SDS_P1;SDS_P2;PMS_P1;PMS_P2;Temp;Humidity;BMP_temperature;BMP_pressure;BME280_temperature;BME280_humidity;BME280_pressure;Samples;Min_cycle;Max_cycle;Signal;HPM_P1;HPM_P2
2022/09/26 00:01:36;;;;;;;0.55;0.55;;;;;;;15.47;84.69;98621.09;4441117;32;32888;-74
2022/09/26 00:04:25;;;;;;;2.78;2.53;;;;;;;15.45;85.50;98615.06;4454774;32;33940;-79
2022/09/26 00:06:59;;;;;;;1.92;1.70;;;;;;;15.70;84.03;98615.72;4454915;32;35975;-80
2022/09/26 00:09:27;;;;;;;1.65;1.55;;;;;;;15.53;85.14;98607.75;4454798;32;35357;-74
2022/09/26 00:11:54;;;;;;;1.52;1.42;;;;;;;15.80;83.05;98613.59;4454890;32;33549;-81
2022/09/26 00:14:25;;;;;;;1.15;0.85;;;;;;;15.25;86.04;98608.88;4454873;32;34641;-79
2022/09/26 00:16:53;;;;;;;0.80;0.80;;;;;;;15.53;84.89;98613.81;4453200;32;34297;-73
2022/09/26 00:19:21;;;;;;;0.90;0.90;;;;;;;15.41;85.37;98610.88;4453792;32;35297;-76
2022/09/26 00:21:49;;;;;;;1.05;1.05;;;;;;;15.26;86.90;98607.09;4454897;32;33487;-79
2022/09/26 00:24:17;;;;;;;1.48;1.37;;;;;;;15.56;85.43;98618.06;4454644;32;33932;-77
2022/09/26 00:26:45;;;;;;;1.77;1.67;;;;;;;15.58;84.95;98599.66;4455058;32;36073;-81
2022/09/26 00:29:13;;;;;;;0.98;0.70;;;;;;;15.41;85.60;98592.50;4454756;32;34451;-80
2022/09/26 00:31:43;;;;;;;0.60;0.60;;;;;;;15.65;84.15;98591.47;4453562;32;34345;-73
2022/09/26 00:34:15;;;;;;;0.90;0.90;;;;;;;15.76;83.87;98582.28;4453573;32;33915;-72
2022/09/26 00:36:44;;;;;;;1.62;1.52;;;;;;;15.23;86.56;98589.75;4453615;32;35116;-81
2022/09/26 00:39:13;;;;;;;4.72;1.58;;;;;;;15.58;84.32;98584.75;4454615;32;34334;-72
2022/09/26 00:41:41;;;;;;;0.93;0.93;;;;;;;15.44;85.56;98581.88;4454636;32;33437;-77
2022/09/26 00:44:48;;;;;;;3.08;2.80;;;;;;;15.39;86.05;98586.47;4453659;32;33800;-74
2022/09/26 00:47:35;;;;;;;1.33;1.27;;;;;;;15.17;87.25;98590.00;4454358;32;36018;-79
2022/09/26 00:50:09;;;;;;;2.12;1.35;;;;;;;15.38;86.70;98579.53;4453135;32;35062;-81
2022/09/26 00:52:40;;;;;;;1.10;1.10;;;;;;;15.38;86.09;98571.66;4453520;32;33428;-80
2022/09/26 00:55:12;;;;;;;0.60;0.60;;;;;;;15.50;84.94;98558.00;4453501;32;34729;-77
2022/09/26 00:57:45;;;;;;;5.47;3.70;;;;;;;15.58;84.26;98561.13;4453468;32;35876;-73
2022/09/26 01:00:14;;;;;;;1.05;0.88;;;;;;;15.60;85.08;98559.31;4454522;32;34487;-80
2022/09/26 01:02:44;;;;;;;0.43;0.43;;;;;;;15.23;87.02;98558.28;4440648;32;32093;-80
2022/09/26 01:05:15;;;;;;;0.77;0.77;;;;;;;15.57;85.13;98556.81;4453196;32;34866;-79
2022/09/26 01:07:43;;;;;;;0.93;0.93;;;;;;;15.49;85.61;98551.88;4453176;32;35814;-80
2022/09/26 01:10:12;;;;;;;2.35;2.08;;;;;;;15.57;85.13;98566.47;4454321;32;34343;-73
2022/09/26 01:12:39;;;;;;;2.17;1.85;;;;;;;15.42;86.46;98553.06;4453252;32;33747;-81
2022/09/26 01:15:08;;;;;;;1.00;1.00;;;;;;;15.20;87.83;98547.91;4453248;32;33989;-81
2022/09/26 01:17:37;;;;;;;1.65;1.55;;;;;;;15.84;83.67;98544.25;4453105;32;34993;-82
2022/09/26 01:20:20;;;;;;;1.85;1.75;;;;;;;15.36;86.29;98548.09;4453051;32;34420;-81
2022/09/26 01:23:16;;;;;;;2.25;1.55;;;;;;;15.38;86.48;98548.88;4454130;32;33620;-80
2022/09/26 01:26:02;;;;;;;0.93;0.93;;;;;;;15.33;86.64;98540.34;4454377;32;33886;-80
2022/09/26 01:28:30;;;;;;;0.70;0.70;;;;;;;15.67;85.13;98546.75;4454122;32;35200;-80
2022/09/26 01:31:21;;;;;;;0.90;0.90;;;;;;;15.33;86.40;98546.44;4455552;32;34444;-80
2022/09/26 01:34:13;;;;;;;1.35;1.25;;;;;;;15.67;85.23;98536.25;4456002;32;33463;-73
2022/09/26 01:36:59;;;;;;;1.15;1.12;;;;;;;15.45;86.58;98536.38;4429537;32;32477;-82
2022/09/26 01:39:49;;;;;;;1.85;1.40;;;;;;;15.71;84.22;98528.19;4456347;32;35129;-81
2022/09/26 01:43:01;;;;;;;0.77;0.77;;;;;;;15.49;85.66;98533.53;4454843;32;35450;-80
2022/09/26 01:46:06;;;;;;;1.02;1.00;;;;;;;15.34;86.25;98535.06;4407086;32;33397;-82
2022/09/26 01:48:46;;;;;;;0.52;0.52;;;;;;;15.10;87.72;98541.34;4423009;32;33910;-70
2022/09/26 01:51:22;;;;;;;2.33;2.12;;;;;;;15.29;86.67;98526.53;4456038;32;35048;-79
2022/09/26 01:54:11;;;;;;;0.98;0.95;;;;;;;15.21;87.68;98523.37;4455018;32;34349;-68
2022/09/26 01:56:41;;;;;;;1.40;1.30;;;;;;;15.43;86.14;98510.19;4454719;32;33133;-83
2022/09/26 01:59:15;;;;;;;0.95;0.95;;;;;;;15.19;86.94;98508.63;4455820;32;34718;-82
2022/09/26 02:01:49;;;;;;;0.75;0.75;;;;;;;15.66;84.28;98501.28;4456073;32;36001;-81
2022/09/26 02:04:21;;;;;;;1.33;1.25;;;;;;;15.24;87.14;98499.63;4454616;32;33636;-80
2022/09/26 02:06:56;;;;;;;1.95;1.85;;;;;;;15.48;85.50;98500.34;4454737;32;33484;-83
2022/09/26 02:09:35;;;;;;;1.27;1.25;;;;;;;15.61;84.30;98500.66;4456036;32;34664;-83
2022/09/26 02:12:06;;;;;;;0.82;0.82;;;;;;;15.51;85.32;98502.84;4454632;32;35020;-74
2022/09/26 02:14:37;;;;;;;1.83;1.73;;;;;;;15.42;85.63;98505.84;4454527;32;34438;-69
2022/09/26 02:17:09;;;;;;;1.37;1.30;;;;;;;15.61;84.48;98495.41;4454813;32;33169;-79
2022/09/26 02:19:50;;;;;;;2.55;2.35;;;;;;;15.77;83.59;98507.87;4455713;32;34879;-84
2022/09/26 02:22:18;;;;;;;2.60;2.30;;;;;;;15.39;85.64;98513.00;4454547;32;35050;-83
2022/09/26 02:24:47;;;;;;;2.67;2.45;;;;;;;15.26;85.96;98526.66;4455774;32;35289;-81
2022/09/26 02:27:14;;;;;;;1.20;0.93;;;;;;;15.25;86.79;98530.22;4455523;32;33413;-79
2022/09/26 02:29:42;;;;;;;1.35;1.25;;;;;;;15.06;87.59;98538.00;4454314;32;34732;-80
2022/09/26 02:32:15;;;;;;;1.37;1.27;;;;;;;15.25;87.33;98534.59;4455891;32;35812;-80
2022/09/26 02:34:46;;;;;;;2.45;2.25;;;;;;;14.89;90.00;98538.69;4455906;32;35328;-69
2022/09/26 02:37:16;;;;;;;0.50;0.50;;;;;;;14.77;91.27;98523.47;4455588;32;32761;-81
2022/09/26 02:39:45;;;;;;;0.80;0.80;;;;;;;15.06;89.70;98503.91;4454296;32;34704;-68
2022/09/26 02:42:35;;;;;;;1.48;1.33;;;;;;;15.26;88.45;98489.94;4455343;32;35083;-69
2022/09/26 02:45:31;;;;;;;2.17;1.98;;;;;;;16.05;82.36;98497.78;4455708;32;34476;-71
2022/09/26 02:48:06;;;;;;;1.08;1.08;;;;;;;14.81;88.43;98503.22;4454481;32;33597;-80
2022/09/26 02:50:45;;;;;;;1.80;1.70;;;;;;;15.31;85.53;98487.13;4455777;32;34800;-82
2022/09/26 02:53:25;;;;;;;1.60;1.50;;;;;;;15.27;86.62;98496.91;4455631;32;35885;-69
2022/09/26 02:56:33;;;;;;;1.55;1.37;;;;;;;14.86;88.27;98507.37;4455690;32;35200;-80
2022/09/26 02:59:09;;;;;;;0.90;0.90;;;;;;;14.78;89.56;98504.22;4454177;32;34252;-79
2022/09/26 03:01:46;;;;;;;1.42;1.33;;;;;;;15.04;88.66;98502.28;4455707;32;34626;-81
2022/09/26 03:04:40;;;;;;;1.67;1.58;;;;;;;15.19;86.87;98496.38;4454376;32;34664;-77
2022/09/26 03:07:15;;;;;;;2.20;2.05;;;;;;;15.49;84.50;98480.19;4454376;32;34453;-77
2022/09/26 03:09:43;;;;;;;1.52;1.42;;;;;;;15.08;87.06;98485.50;4454238;32;33771;-79
2022/09/26 03:12:12;;;;;;;1.77;1.45;;;;;;;15.19;87.78;98492.91;4454467;32;34301;-80
2022/09/26 03:14:41;;;;;;;1.10;1.08;;;;;;;15.34;86.16;98476.50;4454348;32;35032;-79
2022/09/26 03:17:09;;;;;;;2.85;2.40;;;;;;;15.51;85.72;98478.34;4454079;32;34516;-80
2022/09/26 03:19:45;;;;;;;0.80;0.80;;;;;;;15.73;83.56;98486.97;4455452;32;34371;-81
2022/09/26 03:22:14;;;;;;;3.07;1.83;;;;;;;15.76;82.84;98487.78;4454210;32;34709;-81
2022/09/26 03:24:43;;;;;;;1.37;1.27;;;;;;;15.13;86.01;98479.13;4454276;32;35061;-81
2022/09/26 03:27:12;;;;;;;1.87;1.77;;;;;;;14.98;87.24;98464.91;4455405;32;34490;-69
2022/09/26 03:29:40;;;;;;;1.40;1.30;;;;;;;15.12;87.54;98463.47;4454273;32;33514;-81
2022/09/26 03:32:09;;;;;;;1.25;1.15;;;;;;;15.26;86.26;98460.25;4455390;32;34844;-82
2022/09/26 03:34:40;;;;;;;1.80;0.95;;;;;;;15.46;85.07;98454.97;4455295;32;35179;-79
2022/09/26 03:37:07;;;;;;;0.80;0.80;;;;;;;15.19;86.21;98443.91;4455379;32;34383;-81
2022/09/26 03:39:36;;;;;;;1.85;1.75;;;;;;;15.33;86.67;98449.41;4455083;32;33650;-80
2022/09/26 03:42:04;;;;;;;1.00;1.00;;;;;;;15.14;87.17;98444.13;4455081;32;34668;-72
2022/09/26 03:44:33;;;;;;;1.77;1.58;;;;;;;15.18;87.36;98434.34;4455209;32;35047;-79
2022/09/26 03:47:03;;;;;;;2.85;2.58;;;;;;;15.32;86.74;98441.62;4455278;32;34098;-80
2022/09/26 03:49:33;;;;;;;0.80;0.80;;;;;;;15.22;85.87;98435.91;4455192;32;33587;-79
2022/09/26 03:52:02;;;;;;;1.52;1.42;;;;;;;15.47;84.59;98429.56;4454441;32;33947;-80
2022/09/26 03:54:30;;;;;;;1.62;1.37;;;;;;;15.19;86.75;98420.31;4454129;32;34999;-79
2022/09/26 03:56:58;;;;;;;1.45;1.15;;;;;;;15.25;86.26;98425.31;4455020;32;34301;-80
2022/09/26 03:59:26;;;;;;;0.80;0.80;;;;;;;15.15;86.56;98419.59;4455005;32;33611;-77
2022/09/26 04:01:54;;;;;;;1.80;1.70;;;;;;;15.06;86.99;98413.94;4454930;32;33962;-77
2022/09/26 04:04:23;;;;;;;1.45;1.20;;;;;;;15.62;84.26;98410.50;4455200;32;35862;-79
2022/09/26 04:06:51;;;;;;;0.88;0.88;;;;;;;15.17;86.15;98407.25;4455144;32;34317;-78
2022/09/26 04:09:19;;;;;;;0.80;0.80;;;;;;;15.35;85.50;98404.75;4454940;32;33526;-78
2022/09/26 04:11:48;;;;;;;1.80;1.62;;;;;;;15.30;85.41;98415.47;4455201;32;34724;-79
2022/09/26 04:14:16;;;;;;;5.28;3.28;;;;;;;15.22;85.92;98412.31;4453851;32;35025;-73
2022/09/26 04:16:45;;;;;;;1.30;1.17;;;;;;;15.29;85.74;98400.63;4455207;32;34453;-80
2022/09/26 04:19:14;;;;;;;1.80;1.67;;;;;;;15.40;85.73;98399.28;4455114;32;33441;-72
2022/09/26 04:21:42;;;;;;;1.60;1.50;;;;;;;15.11;87.17;98407.56;4454783;32;34593;-80
2022/09/26 04:24:14;;;;;;;1.58;1.48;;;;;;;15.31;86.87;98409.28;4455068;32;35843;-77
2022/09/26 04:26:44;;;;;;;1.25;1.15;;;;;;;15.13;87.57;98404.88;4450822;32;35167;-70
2022/09/26 04:29:12;;;;;;;1.95;1.75;;;;;;;14.96;88.35;98401.22;4454697;32;33543;-69
2022/09/26 04:31:43;;;;;;;1.10;1.02;;;;;;;15.26;86.66;98400.75;4454796;32;34884;-71
2022/09/26 04:34:12;;;;;;;0.95;0.95;;;;;;;15.08;87.64;98401.59;4453580;32;35040;-69
2022/09/26 04:36:40;;;;;;;3.22;1.77;;;;;;;14.86;89.85;98397.28;4453662;32;35095;-77
2022/09/26 04:39:08;;;;;;;1.62;1.55;;;;;;;14.84;90.31;98404.38;4453569;32;33533;-71
2022/09/26 04:41:37;;;;;;;2.15;2.00;;;;;;;15.00;89.59;98393.19;4454818;32;33819;-71
2022/09/26 04:44:06;;;;;;;0.80;0.80;;;;;;;15.35;87.29;98395.13;4446515;32;249506;-76
2022/09/26 04:46:34;;;;;;;3.42;3.10;;;;;;;15.07;88.76;98400.75;4454309;32;34616;-74
2022/09/26 04:49:03;;;;;;;1.60;1.52;;;;;;;15.06;89.17;98406.06;4454257;32;34444;-72
2022/09/26 04:51:31;;;;;;;1.77;1.67;;;;;;;15.18;88.52;98408.13;4440560;32;32369;-74
2022/09/26 04:54:00;;;;;;;1.87;1.75;;;;;;;15.03;89.12;98419.28;4454279;32;35105;-73
2022/09/26 04:56:32;;;;;;;3.65;2.17;;;;;;;15.13;88.75;98417.97;4453512;32;33784;-73
2022/09/26 04:58:59;;;;;;;2.55;2.35;;;;;;;15.18;88.68;98418.63;4454325;32;33349;-76
2022/09/26 05:01:29;;;;;;;1.90;1.80;;;;;;;15.09;88.58;98411.19;4453192;32;33961;-76
2022/09/26 05:03:58;;;;;;;2.97;2.78;;;;;;;15.09;89.19;98409.41;4454404;32;35031;-76
2022/09/26 05:06:26;;;;;;;2.28;2.08;;;;;;;15.10;89.21;98415.47;4453075;32;35101;-72
2022/09/26 05:08:54;;;;;;;1.30;1.20;;;;;;;15.81;84.24;98410.53;4454285;32;33544;-72
2022/09/26 05:11:24;;;;;;;3.50;2.17;;;;;;;15.20;87.93;98414.16;4453103;32;34025;-71
2022/09/26 05:13:54;;;;;;;10.40;2.58;;;;;;;15.84;84.79;98412.16;4454194;32;35156;-72
2022/09/26 05:16:26;;;;;;;4.53;3.45;;;;;;;15.64;84.37;98413.91;4453002;32;33947;-75
2022/09/26 05:18:56;;;;;;;1.77;1.67;;;;;;;15.82;83.04;98414.00;4454180;32;34285;-77
2022/09/26 05:21:24;;;;;;;1.80;1.27;;;;;;;15.94;82.27;98410.81;4454214;32;34803;-72
2022/09/26 05:26:42;;;;;;;4.95;4.05;;;;;;;14.95;88.97;98404.75;4453857;32;35309;-77
2022/09/26 05:29:11;;;;;;;5.75;2.45;;;;;;;15.72;85.21;98400.41;4453999;32;32529;-76
2022/09/26 05:31:39;;;;;;;1.12;1.12;;;;;;;15.70;83.93;98400.50;4454083;32;34718;-77
2022/09/26 05:34:11;;;;;;;1.45;1.35;;;;;;;15.52;86.53;98390.88;4454038;32;34797;-77
2022/09/26 05:36:46;;;;;;;2.00;1.85;;;;;;;15.52;85.91;98406.59;4454217;32;34449;-78
2022/09/26 05:42:09;;;;;;;4.57;2.50;;;;;;;15.26;87.42;98408.63;4440702;32;33657;-74
2022/09/26 05:44:38;;;;;;;3.20;2.40;;;;;;;15.05;89.80;98406.97;4454033;32;35852;-76
2022/09/26 05:47:07;;;;;;;3.67;3.37;;;;;;;15.31;88.44;98422.38;4452419;32;34426;-76
2022/09/26 05:49:36;;;;;;;1.65;1.50;;;;;;;14.97;89.80;98423.87;4452653;32;33482;-76
2022/09/26 05:52:04;;;;;;;2.55;2.35;;;;;;;15.50;86.41;98418.94;4453878;32;33834;-76
2022/09/26 05:54:32;;;;;;;1.62;1.23;;;;;;;15.50;86.43;98413.69;4453528;32;34961;-77
2022/09/26 05:57:02;;;;;;;1.67;1.58;;;;;;;15.25;88.12;98416.59;4453824;32;34551;-78
2022/09/26 05:59:34;;;;;;;1.80;1.70;;;;;;;15.15;87.85;98408.25;4452860;32;33343;-77
2022/09/26 06:02:06;;;;;;;1.15;1.15;;;;;;;15.82;84.81;98395.63;4452386;32;33031;-73
2022/09/26 06:04:36;;;;;;;5.53;3.20;;;;;;;15.08;88.23;98399.81;4453654;32;34994;-76
2022/09/26 06:07:06;;;;;;;2.42;1.87;;;;;;;15.10;88.64;98392.72;4453523;32;35304;-71
2022/09/26 06:09:35;;;;;;;3.20;2.97;;;;;;;14.80;91.76;98381.81;4453386;32;34239;-72
2022/09/26 06:12:05;;;;;;;6.78;3.78;;;;;;;15.34;88.64;98371.59;4452382;32;33190;-74
2022/09/26 06:14:33;;;;;;;2.62;2.42;;;;;;;15.35;88.83;98379.38;4453432;32;34998;-79
2022/09/26 06:17:00;;;;;;;1.00;1.00;;;;;;;15.30;89.65;98376.13;4455155;32;35238;-79
2022/09/26 06:19:28;;;;;;;6.50;2.47;;;;;;;15.47;89.32;98377.09;4455493;32;33576;-78
2022/09/26 06:21:59;;;;;;;3.12;2.80;;;;;;;15.49;88.96;98380.50;4455491;32;33902;-79
2022/09/26 06:24:43;;;;;;;1.45;1.35;;;;;;;15.85;88.19;98377.97;4455495;32;35130;-77
2022/09/26 06:27:13;;;;;;;6.68;3.75;;;;;;;15.97;87.31;98376.53;4454289;32;35086;-77
2022/09/26 06:29:41;;;;;;;1.87;1.77;;;;;;;15.67;88.84;98371.78;4455497;32;34481;-73
2022/09/26 06:32:09;;;;;;;2.28;2.15;;;;;;;15.60;89.90;98378.25;4451862;32;33145;-73
2022/09/26 06:34:39;;;;;;;4.55;2.28;;;;;;;16.06;88.61;98383.97;4455342;32;35645;-71
2022/09/26 06:37:07;;;;;;;2.00;1.90;;;;;;;15.87;88.93;98384.00;4455416;32;34536;-71
2022/09/26 06:39:35;;;;;;;3.08;2.12;;;;;;;16.30;86.46;98392.41;4428594;32;32708;-71
2022/09/26 06:42:07;;;;;;;2.37;2.08;;;;;;;16.03;87.87;98396.38;4454457;32;34026;-71
2022/09/26 06:44:46;;;;;;;4.12;3.42;;;;;;;15.99;88.97;98395.69;4442909;32;35086;-70
2022/09/26 06:47:14;;;;;;;1.85;1.75;;;;;;;15.97;89.38;98396.66;4454637;32;34517;-72
2022/09/26 06:49:45;;;;;;;1.80;1.37;;;;;;;16.09;87.61;98402.19;4454237;32;33518;-77
2022/09/26 06:52:18;;;;;;;1.42;1.40;;;;;;;16.18;87.07;98394.78;4455190;32;34729;-71
2022/09/26 06:54:48;;;;;;;5.10;2.28;;;;;;;16.64;85.09;98390.72;4454322;32;35168;-77
2022/09/26 06:57:16;;;;;;;1.92;1.55;;;;;;;16.39;84.73;98393.72;4455453;32;35217;-71
2022/09/26 06:59:44;;;;;;;1.17;1.02;;;;;;;16.03;87.16;98391.97;4455191;32;34118;-72
2022/09/26 07:02:16;;;;;;;1.52;1.42;;;;;;;16.06;87.89;98398.88;4454071;32;33740;-76
2022/09/26 07:04:51;;;;;;;2.55;1.23;;;;;;;16.19;87.84;98391.25;4455399;32;36011;-72
2022/09/26 07:07:20;;;;;;;1.98;1.87;;;;;;;16.39;88.17;98396.34;4454985;32;35038;-71
2022/09/26 07:09:53;;;;;;;1.73;1.62;;;;;;;16.78;83.64;98387.41;4454991;32;33439;-72
2022/09/26 07:12:24;;;;;;;1.20;1.20;;;;;;;16.18;87.75;98386.91;4453934;32;34012;-72
2022/09/26 07:15:00;;;;;;;2.03;1.85;;;;;;;16.46;86.50;98394.28;4455399;32;35062;-74
2022/09/26 07:17:50;;;;;;;1.25;1.12;;;;;;;16.37;87.03;98389.47;4443354;32;34430;-72
2022/09/26 07:20:20;;;;;;;2.78;1.80;;;;;;;16.80;85.73;98397.81;4441889;32;33723;-72
2022/09/26 07:22:53;;;;;;;1.52;1.42;;;;;;;16.67;85.94;98390.56;4455306;32;33831;-78
2022/09/26 07:25:22;;;;;;;1.37;1.27;;;;;;;16.72;84.58;98390.34;4455765;32;34411;-74
2022/09/26 07:27:52;;;;;;;1.30;1.25;;;;;;;16.75;83.83;98397.22;4454072;32;34503;-79
2022/09/26 07:30:20;;;;;;;3.78;2.45;;;;;;;16.41;85.79;98397.16;4455100;32;33422;-79
2022/09/26 07:32:49;;;;;;;1.10;1.10;;;;;;;16.53;86.30;98414.06;4455211;32;34060;-77
2022/09/26 07:35:18;;;;;;;2.28;2.05;;;;;;;16.69;87.03;98416.75;4455204;32;34888;-77
2022/09/26 07:37:51;;;;;;;2.08;1.85;;;;;;;16.99;84.75;98413.53;4455107;32;34336;-75
2022/09/26 07:40:25;;;;;;;4.22;2.78;;;;;;;16.94;85.42;98413.78;4455271;32;33506;-77
2022/09/26 07:42:58;;;;;;;0.80;0.77;;;;;;;17.11;83.47;98417.31;4453643;32;34048;-77
2022/09/26 07:51:28;;;;;;;0.60;0.60;;;;;;;17.00;82.41;98436.28;4454763;32;34222;-74
2022/09/26 07:53:56;;;;;;;1.52;1.42;;;;;;;17.04;82.65;98437.81;4453868;32;34867;-76
2022/09/26 07:56:28;;;;;;;1.40;1.30;;;;;;;17.04;82.81;98437.81;4454496;32;34703;-75
2022/09/26 07:58:55;;;;;;;1.55;1.15;;;;;;;16.99;82.42;98440.66;4454808;32;34526;-75
2022/09/26 08:01:24;;;;;;;0.73;0.73;;;;;;;16.64;84.35;98434.53;4455155;32;33160;-74
2022/09/26 08:03:57;;;;;;;0.80;0.80;;;;;;;16.95;82.31;98433.03;4454670;32;34698;-77
2022/09/26 08:06:26;;;;;;;1.92;1.83;;;;;;;16.77;83.83;98437.44;4454453;32;35212;-78
2022/09/26 08:08:54;;;;;;;1.52;1.42;;;;;;;16.72;85.06;98429.75;4453797;32;35229;-77
2022/09/26 08:11:43;;;;;;;2.33;2.12;;;;;;;17.05;82.05;98429.00;4454780;32;34098;-79
2022/09/26 08:14:12;;;;;;;1.77;1.67;;;;;;;17.07;81.41;98421.03;4454729;32;34129;-79
2022/09/26 08:16:41;;;;;;;0.82;0.80;;;;;;;17.05;81.75;98424.59;4454948;32;35212;-78
2022/09/26 08:19:16;;;;;;;1.67;1.58;;;;;;;17.18;81.74;98429.22;4454926;32;34427;-76
2022/09/26 08:21:44;;;;;;;1.65;1.55;;;;;;;16.84;82.86;98437.06;4441272;32;31779;-77
2022/09/26 08:24:13;;;;;;;1.15;1.05;;;;;;;16.81;82.29;98433.72;4454646;32;34455;-78
2022/09/26 08:26:44;;;;;;;2.25;2.12;;;;;;;16.86;83.93;98426.47;4454828;32;36237;-78
2022/09/26 08:29:12;;;;;;;1.58;1.48;;;;;;;17.08;82.67;98420.94;4453692;32;34500;-77
2022/09/26 08:31:40;;;;;;;0.65;0.65;;;;;;;17.21;82.19;98429.91;4454661;32;33482;-76
2022/09/26 08:34:08;;;;;;;0.62;0.62;;;;;;;16.98;82.65;98432.88;4453431;32;34031;-77
2022/09/26 08:36:37;;;;;;;2.10;1.95;;;;;;;17.13;82.43;98437.34;4454825;32;35246;-79
2022/09/26 08:39:05;;;;;;;1.12;1.08;;;;;;;16.92;82.98;98438.44;4454283;32;34450;-79
2022/09/26 08:41:55;;;;;;;1.65;1.55;;;;;;;17.06;81.84;98443.84;4454665;32;33537;-77
2022/09/26 08:44:59;;;;;;;1.37;1.33;;;;;;;17.07;82.39;98448.19;4454812;32;34711;-78
2022/09/26 08:47:48;;;;;;;1.20;0.82;;;;;;;17.10;81.89;98437.50;4454634;32;33982;-79
2022/09/26 08:50:31;;;;;;;1.10;1.08;;;;;;;17.05;83.68;98436.91;4453562;32;35203;-78
2022/09/26 08:53:09;;;;;;;0.90;0.82;;;;;;;17.39;82.59;98441.22;4454443;32;33565;-75
2022/09/26 08:55:44;;;;;;;4.95;2.80;;;;;;;17.96;79.95;98443.44;4454445;32;33954;-75
2022/09/26 08:58:42;;;;;;;0.47;0.45;;;;;;;17.70;82.21;98436.09;4453447;32;34097;-79
2022/09/26 09:01:20;;;;;;;0.30;0.30;;;;;;;17.92;80.73;98439.28;4433297;32;35307;-78
2022/09/26 09:03:53;;;;;;;1.85;0.75;;;;;;;18.13;80.29;98441.69;4453454;32;33590;-79
2022/09/26 09:06:22;;;;;;;2.75;1.55;;;;;;;18.12;79.30;98447.88;4453185;32;33947;-78
2022/09/26 09:08:51;;;;;;;0.90;0.90;;;;;;;18.22;79.14;98448.22;4440258;32;35062;-79
2022/09/26 09:11:39;;;;;;;2.37;2.00;;;;;;;18.42;78.23;98454.97;4452942;32;35163;-77
2022/09/26 09:14:25;;;;;;;;;;;;;;;18.56;76.19;98453.28;4454610;32;34349;-78
2022/09/26 09:17:16;;;;;;;1.27;1.23;;;;;;;18.55;75.68;98446.28;4454303;32;34097;-76
2022/09/26 09:19:55;;;;;;;0.50;0.50;;;;;;;18.20;78.95;98445.66;4440139;32;34588;-80
2022/09/26 09:22:43;;;;;;;1.55;1.30;;;;;;;18.72;77.77;98447.94;4454190;32;34447;-79
2022/09/26 09:25:22;;;;;;;1.42;1.30;;;;;;;19.03;77.67;98448.78;4454273;32;33576;-80
2022/09/26 09:28:00;;;;;;;1.55;1.27;;;;;;;19.33;74.59;98442.62;4453337;32;33991;-79
2022/09/26 09:30:47;;;;;;;2.08;1.70;;;;;;;19.25;74.07;98444.84;4453130;32;35345;-81
2022/09/26 09:33:21;;;;;;;1.80;1.70;;;;;;;19.06;74.32;98448.63;4454389;32;35346;-80
2022/09/26 09:35:52;;;;;;;4.82;2.60;;;;;;;19.48;72.77;98441.69;4453124;32;33578;-77
2022/09/26 09:38:26;;;;;;;1.35;1.25;;;;;;;19.10;75.11;98439.56;4451666;32;33795;-81
2022/09/26 09:41:08;;;;;;;0.35;0.35;;;;;;;19.42;73.41;98436.75;4439323;32;33216;-80
2022/09/26 09:43:43;;;;;;;2.28;1.12;;;;;;;19.52;72.45;98434.41;4451886;32;34390;-81
2022/09/26 09:46:17;;;;;;;2.90;2.22;;;;;;;20.23;70.03;98429.97;4452558;32;33555;-77
2022/09/26 09:48:46;;;;;;;1.12;1.10;;;;;;;20.45;68.43;98426.75;4452673;32;33805;-75
2022/09/26 09:51:34;;;;;;;0.75;0.75;;;;;;;20.25;68.16;98423.63;4453723;32;35896;-78
2022/09/26 09:54:15;;;;;;;1.08;1.08;;;;;;;20.57;66.94;98415.34;4455894;32;35339;-76
2022/09/26 09:56:50;;;;;;;0.50;0.50;;;;;;;20.97;66.29;98418.00;4455758;32;33606;-80
2022/09/26 09:59:56;;;;;;;0.70;0.70;;;;;;;20.86;70.57;98415.25;4454436;32;34741;-80
2022/09/26 10:02:32;;;;;;;0.68;0.68;;;;;;;21.23;66.60;98422.44;4455925;32;35927;-80
2022/09/26 10:05:14;;;;;;;2.37;2.12;;;;;;;21.98;67.52;98413.66;4454764;32;34570;-79
2022/09/26 10:07:47;;;;;;;1.45;1.35;;;;;;;22.07;63.28;98405.88;4455524;32;33056;-79
2022/09/26 10:10:20;;;;;;;2.00;1.35;;;;;;;22.41;61.49;98410.53;4455751;32;33616;-80
2022/09/26 10:12:52;;;;;;;0.45;0.45;;;;;;;22.50;60.14;98405.41;4454798;32;35151;-80
2022/09/26 10:15:25;;;;;;;1.77;1.65;;;;;;;22.85;57.70;98401.91;4442015;32;34437;-80
2022/09/26 10:18:15;;;;;;;1.75;1.10;;;;;;;22.82;61.31;98403.91;4455775;32;33479;-81
2022/09/26 10:20:54;;;;;;;0.47;0.47;;;;;;;;;;4454962;32;33996;-80
2022/09/26 10:23:33;;;;;;;1.02;1.00;;;;;;;22.94;59.94;98408.28;4454841;32;33906;-84
2022/09/26 10:26:07;;;;;;;1.55;1.25;;;;;;;23.07;60.64;98418.84;4452344;32;34364;-77
2022/09/26 10:28:58;;;;;;;1.12;0.93;;;;;;;22.38;59.83;98411.62;4455605;32;33534;-79
2022/09/26 10:31:34;;;;;;;1.10;1.05;;;;;;;21.78;59.96;98416.78;4454557;32;34704;-78
2022/09/26 10:34:30;;;;;;;0.70;0.70;;;;;;;21.52;58.82;98420.47;4454622;32;35102;-78
2022/09/26 10:37:28;;;;;;;0.82;0.82;;;;;;;21.32;59.73;98429.78;4455234;32;35485;-83
2022/09/26 10:42:47;;;;;;;0.73;0.73;;;;;;;21.29;59.82;98433.47;4455706;32;34601;-91
2022/09/26 10:45:19;;;;;;;0.45;0.40;;;;;;;21.05;61.36;98424.56;4454419;32;35503;-83
2022/09/26 10:47:51;;;;;;;0.47;0.47;;;;;;;20.43;61.79;98423.37;4454321;32;34724;-84
2022/09/26 10:50:26;;;;;;;1.02;0.93;;;;;;;20.17;63.45;98412.72;4455445;32;35818;-85
2022/09/26 10:53:07;;;;;;;2.97;1.50;;;;;;;20.35;62.29;98420.41;4454416;32;34277;-93
2022/09/26 10:55:43;;;;;;;1.05;1.05;;;;;;;20.10;62.32;98426.41;4453698;32;35445;-84
2022/09/26 10:58:17;;;;;;;0.30;0.30;;;;;;;20.14;63.67;98426.13;4455314;32;34360;-91
2022/09/26 11:00:50;;;;;;;1.02;0.60;;;;;;;20.29;63.13;98429.56;4454433;32;33401;-91
2022/09/26 11:03:21;;;;;;;0.60;0.60;;;;;;;20.18;64.26;98424.97;4453957;32;33260;-88
2022/09/26 11:05:57;;;;;;;0.70;0.70;;;;;;;20.20;63.99;98425.72;4454299;32;34997;-88
2022/09/26 11:08:28;;;;;;;0.82;0.82;;;;;;;20.08;63.61;98429.16;4453873;32;34203;-89
2022/09/26 11:10:59;;;;;;;0.95;0.95;;;;;;;20.75;63.72;98426.53;4454343;32;34346;-88
2022/09/26 11:13:38;;;;;;;0.40;0.40;;;;;;;20.74;63.94;98429.31;4454279;32;33552;-91
2022/09/26 11:16:12;;;;;;;0.37;0.37;;;;;;;20.82;62.21;98434.91;4455355;32;35057;-92
2022/09/26 11:18:41;;;;;;;0.70;0.70;;;;;;;20.78;59.82;98438.72;4454176;32;35036;-91
2022/09/26 11:21:17;;;;;;;0.50;0.50;;;;;;;21.38;60.42;98432.81;4455464;32;34263;-92
2022/09/26 11:24:14;;;;;;;1.42;1.33;;;;;;;21.99;59.30;98424.16;4454578;32;33997;-91
2022/09/26 11:26:58;;;;;;;1.02;0.98;;;;;;;21.85;56.54;98419.00;4453876;32;35764;-85
2022/09/26 11:29:46;;;;;;;0.40;0.40;;;;;;;21.68;57.92;98421.06;4441210;32;34445;-84
2022/09/26 11:32:28;;;;;;;0.68;0.68;;;;;;;22.22;57.91;98416.31;4454279;32;32959;-88
2022/09/26 11:35:01;;;;;;;0.50;0.50;;;;;;;21.81;57.50;98412.22;4453906;32;34795;-84
2022/09/26 11:38:12;;;;;;;0.40;0.40;;;;;;;22.85;55.57;98409.84;4453934;32;35937;-91
2022/09/26 11:40:48;;;;;;;0.88;0.75;;;;;;;23.22;52.48;98411.50;4455137;32;34529;-83
2022/09/26 11:43:52;;;;;;;0.43;0.43;;;;;;;22.81;53.29;98415.50;4455245;32;34008;-84
2022/09/26 11:46:33;;;;;;;0.52;0.52;;;;;;;22.83;54.16;98426.84;4454187;32;33932;-90
2022/09/26 11:49:09;;;;;;;0.50;0.50;;;;;;;23.43;53.63;98415.13;4454482;32;34736;-90
2022/09/26 11:51:59;;;;;;;0.70;0.65;;;;;;;23.23;53.61;98416.69;4454085;32;35143;-86
2022/09/26 11:54:57;;;;;;;1.35;1.25;;;;;;;23.09;51.58;98419.59;4453694;32;33322;-87
2022/09/26 11:58:07;;;;;;;0.68;0.68;;;;;;;22.97;55.43;98423.16;4454919;32;34746;-87
2022/09/26 12:01:11;;;;;;;0.85;0.80;;;;;;;23.04;55.75;98419.06;4454611;32;34708;-91
2022/09/26 12:03:54;;;;;;;0.35;0.35;;;;;;;23.59;52.31;98422.72;4453492;32;35216;-82
2022/09/26 12:06:32;;;;;;;1.00;0.93;;;;;;;23.20;50.44;98419.59;4453916;32;32723;-82
2022/09/26 12:09:10;;;;;;;1.25;1.15;;;;;;;23.32;51.83;98412.47;4453445;32;34151;-82
2022/09/26 12:11:48;;;;;;;1.98;1.20;;;;;;;23.44;50.71;98400.06;4454878;32;35037;-83
2022/09/26 12:14:35;;;;;;;0.80;0.80;;;;;;;23.23;54.16;98394.63;4453056;32;34904;-93
2022/09/26 12:17:35;;;;;;;0.70;0.70;;;;;;;23.36;53.83;98386.53;4454671;32;33400;-92
2022/09/26 12:20:06;;;;;;;1.70;1.33;;;;;;;23.33;51.44;98386.75;4448671;32;33863;-85
2022/09/26 12:22:45;;;;;;;0.50;0.47;;;;;;;23.64;51.28;98374.53;4454678;32;35059;-89
2022/09/26 12:25:30;;;;;;;2.20;2.00;;;;;;;23.52;51.72;98370.22;4453605;32;34031;-89